createdAt,value
2019-04-14T00:00:27.833Z,100719.14
2019-04-14T00:05:34.033Z,100720.11
2019-04-14T00:10:37.884Z,100709.81
2019-04-14T00:15:45.743Z,100702.59
2019-04-14T00:20:49.037Z,100702.59
2019-04-14T00:25:54.366Z,100701.14
2019-04-14T00:30:59.850Z,100701.14
2019-04-14T00:36:11.545Z,100701.04
2019-04-14T00:41:41.414Z,100704.22
2019-04-14T00:46:43.410Z,100699.42
2019-04-14T00:51:48.527Z,100699.04
2019-04-14T00:56:52.660Z,100695.45
2019-04-14T01:01:56.984Z,100695.94
2019-04-14T01:07:01.980Z,100698.25
2019-04-14T01:12:06.462Z,100694.21
2019-04-14T01:17:11.278Z,100669.61
2019-04-14T01:22:16.268Z,100689.20
2019-04-14T01:27:21.108Z,100687.00
2019-04-14T01:32:26.127Z,100685.75
2019-04-14T01:37:31.163Z,100685.75
2019-04-14T01:42:35.559Z,100685.75
2019-04-14T01:47:40.000Z,100680.76
2019-04-14T01:53:05.841Z,100698.25
2019-04-14T01:58:16.430Z,100698.25
2019-04-14T02:03:21.719Z,100701.91
2019-04-14T02:08:26.319Z,100701.23
2019-04-14T02:13:31.117Z,100701.23
2019-04-14T02:18:36.200Z,100707.89
2019-04-14T02:23:41.142Z,100707.89
2019-04-14T02:28:46.159Z,100707.59
2019-04-14T02:39:36.448Z,100704.03
2019-04-14T02:44:32.120Z,100705.00
2019-04-14T02:49:38.608Z,100684.40
2019-04-14T02:54:51.912Z,100702.79
2019-04-14T02:59:49.864Z,100704.03
2019-04-14T03:04:50.785Z,100701.34
2019-04-14T03:10:13.021Z,100684.51
2019-04-14T03:15:01.426Z,100684.51
2019-04-14T03:20:20.552Z,100703.17
2019-04-14T03:25:49.488Z,100683.16
2019-04-14T03:36:44.134Z,100697.02
2019-04-14T03:41:25.936Z,100689.02
2019-04-14T03:46:36.447Z,100696.61
2019-04-14T03:51:40.500Z,100694.89
2019-04-14T03:56:46.694Z,100701.63
2019-04-14T04:01:52.118Z,100699.90
2019-04-14T04:06:57.487Z,100699.90
2019-04-14T04:12:01.945Z,100701.63
2019-04-14T04:17:25.447Z,100704.05
2019-04-14T04:22:58.505Z,100705.39
2019-04-14T04:28:27.834Z,100697.48
2019-04-14T04:33:39.747Z,100698.35
2019-04-14T04:38:51.080Z,100700.66
2019-04-14T04:43:56.041Z,100704.70
2019-04-14T04:49:10.885Z,100707.88
2019-04-14T04:54:06.133Z,100714.23
2019-04-14T04:59:10.188Z,100719.24
2019-04-14T05:04:15.329Z,100720.11
2019-04-14T05:09:29.563Z,100726.05
2019-04-14T05:14:41.995Z,100726.05
2019-04-14T05:19:46.132Z,100735.20
2019-04-14T05:24:51.327Z,100735.30
2019-04-14T05:29:55.869Z,100738.37
2019-04-14T05:35:00.876Z,100741.66
2019-04-14T05:40:05.905Z,100741.66
2019-04-14T05:45:11.180Z,100737.52
2019-04-14T05:50:15.869Z,100742.48
2019-04-14T05:55:20.215Z,100748.45
2019-04-14T06:00:25.561Z,100748.45
2019-04-14T06:05:29.862Z,100759.30
2019-04-14T06:10:34.607Z,100742.23
2019-04-14T06:15:38.654Z,100761.50
2019-04-14T06:20:42.687Z,100753.70
2019-04-14T06:25:46.713Z,100761.67
2019-04-14T06:31:19.126Z,100770.88
2019-04-14T06:36:47.942Z,100767.05
2019-04-14T06:41:51.977Z,100767.12
2019-04-14T06:46:56.007Z,100768.08
2019-04-14T06:52:00.108Z,100769.14
2019-04-14T06:57:04.384Z,100775.87
2019-04-14T07:02:08.784Z,100772.39
2019-04-14T07:07:12.865Z,100782.29
2019-04-14T07:12:17.103Z,100782.29
2019-04-14T07:17:21.154Z,100781.55
2019-04-14T07:22:25.172Z,100781.55
2019-04-14T07:27:29.189Z,100788.73
2019-04-14T07:32:57.921Z,100791.64
2019-04-14T07:38:20.922Z,100794.65
2019-04-14T07:43:39.489Z,100795.52
2019-04-14T07:48:50.522Z,100802.58
2019-04-14T07:53:58.627Z,100803.51
2019-04-14T07:59:37.340Z,100803.51
2019-04-14T08:04:46.391Z,100802.53
2019-04-14T08:09:50.716Z,100807.22
2019-04-14T08:14:54.739Z,100811.30
2019-04-14T08:19:59.059Z,100811.30
2019-04-14T08:25:03.260Z,100812.55
2019-04-14T08:30:08.300Z,100812.55
2019-04-14T08:35:12.544Z,100821.66
2019-04-14T08:40:16.679Z,100821.66
2019-04-14T08:45:32.115Z,100819.83
2019-04-14T08:50:44.375Z,100823.48
2019-04-14T08:56:01.440Z,100821.76
2019-04-14T09:01:15.712Z,100821.00
2019-04-14T09:06:33.735Z,100821.00
2019-04-14T09:11:42.392Z,100822.34
2019-04-14T09:16:46.575Z,100829.73
2019-04-14T09:21:50.613Z,100827.45
2019-04-14T09:26:54.637Z,100827.45
2019-04-14T09:31:59.127Z,100831.08
2019-04-14T09:37:03.253Z,100835.91
2019-04-14T09:42:07.492Z,100838.50
2019-04-14T09:47:11.522Z,100838.78
2019-04-14T09:52:15.710Z,100841.19
2019-04-14T09:57:19.772Z,100838.66
2019-04-14T10:02:23.883Z,100823.14
2019-04-14T10:07:27.936Z,100838.55
2019-04-14T10:12:32.219Z,100838.55
2019-04-14T10:17:36.324Z,100850.98
2019-04-14T10:22:40.457Z,100849.33
2019-04-14T10:27:44.520Z,100854.81
2019-04-14T10:32:48.652Z,100859.16
2019-04-14T10:37:52.803Z,100838.80
2019-04-14T10:42:56.965Z,100845.22
2019-04-14T10:48:01.124Z,100845.22
2019-04-14T10:53:05.435Z,100846.88
2019-04-14T10:58:09.599Z,100844.87
2019-04-14T11:03:13.807Z,100839.05
2019-04-14T11:08:17.976Z,100842.36
2019-04-14T11:13:22.027Z,100840.63
2019-04-14T11:18:26.177Z,100840.63
2019-04-14T11:23:30.277Z,100852.67
2019-04-14T11:28:34.347Z,100861.00
2019-04-14T11:33:56.291Z,100861.00
2019-04-14T11:39:06.705Z,100874.73
2019-04-14T11:44:10.853Z,100869.84
2019-04-14T11:49:15.033Z,100869.84
2019-04-14T11:54:19.145Z,100865.88
2019-04-14T11:59:32.861Z,100871.12
2019-04-14T12:05:07.993Z,100870.55
2019-04-14T12:10:14.797Z,100868.20
2019-04-14T12:15:18.906Z,100866.53
2019-04-14T12:20:22.954Z,100866.53
2019-04-14T12:25:27.088Z,100859.91
2019-04-14T12:30:31.327Z,100851.23
2019-04-14T12:35:35.397Z,100861.58
2019-04-14T12:40:40.237Z,100861.25
2019-04-14T12:46:06.164Z,100852.28
2019-04-14T12:51:14.256Z,100858.62
2019-04-14T12:56:21.586Z,100866.34
2019-04-14T13:01:27.146Z,100866.34
2019-04-14T13:06:31.328Z,100858.92
2019-04-14T13:11:35.345Z,100858.92
2019-04-14T13:16:39.566Z,100854.33
2019-04-14T13:21:43.660Z,100854.33
2019-04-14T13:26:47.890Z,100858.13
2019-04-14T13:31:51.926Z,100858.05
2019-04-14T13:36:55.965Z,100856.29
2019-04-14T13:42:00.158Z,100837.34
2019-04-14T13:47:04.376Z,100832.75
2019-04-14T13:52:08.435Z,100847.86
2019-04-14T13:57:12.574Z,100851.45
2019-04-14T14:02:16.850Z,100849.05
2019-04-14T14:07:20.962Z,100843.28
2019-04-14T14:12:33.480Z,100844.24
2019-04-14T14:17:43.490Z,100845.49
2019-04-14T14:23:05.501Z,100843.28
2019-04-14T14:28:09.785Z,100839.63
2019-04-14T14:33:14.009Z,100836.45
2019-04-14T14:38:18.110Z,100847.22
2019-04-14T14:43:22.181Z,100824.88
2019-04-14T14:48:32.521Z,100830.67
2019-04-14T14:53:36.656Z,100830.67
2019-04-14T14:58:40.728Z,100846.73
2019-04-14T15:03:44.867Z,100838.18
2019-04-14T15:08:48.895Z,100839.05
2019-04-14T15:13:52.960Z,100839.05
2019-04-14T15:18:57.175Z,100840.39
2019-04-14T15:24:01.304Z,100846.16
2019-04-14T15:29:05.592Z,100853.84
2019-04-14T15:34:10.759Z,100855.13
2019-04-14T15:39:15.071Z,100852.88
2019-04-14T15:44:19.122Z,100834.50
2019-04-14T15:49:23.243Z,100851.47
2019-04-14T15:54:27.446Z,100850.61
2019-04-14T15:59:56.765Z,100850.61
2019-04-14T16:05:09.247Z,100851.95
2019-04-14T16:10:21.728Z,100858.75
2019-04-14T16:15:40.523Z,100858.75
2019-04-14T16:20:45.026Z,100854.25
2019-04-14T16:26:04.048Z,100835.48
2019-04-14T16:31:43.178Z,100850.11
2019-04-14T16:36:47.783Z,100850.11
2019-04-14T16:41:51.871Z,100848.16
2019-04-14T16:46:56.036Z,100857.31
2019-04-14T16:52:02.820Z,100855.85
2019-04-14T16:57:24.783Z,100854.50
2019-04-14T17:02:29.116Z,100857.39
2019-04-14T17:07:33.159Z,100856.66
2019-04-14T17:12:37.411Z,100863.51
2019-04-14T17:18:04.727Z,100863.58
2019-04-14T17:23:26.319Z,100863.58
2019-04-14T17:28:53.540Z,100880.81
2019-04-14T17:34:06.567Z,100880.90
2019-04-14T17:39:26.942Z,100887.72
2019-04-14T17:44:35.249Z,100872.23
2019-04-14T17:50:04.261Z,100874.17
2019-04-14T17:55:27.531Z,100874.17
2019-04-14T18:00:47.049Z,100899.92
2019-04-14T18:05:55.026Z,100897.14
2019-04-14T18:11:04.783Z,100911.55
2019-04-14T18:16:25.594Z,100913.86
2019-04-14T18:21:29.808Z,100919.79
2019-04-14T18:26:34.325Z,100926.08
2019-04-14T18:32:15.585Z,100926.08
2019-04-14T18:37:24.942Z,100943.47
2019-04-14T18:42:36.775Z,100948.19
2019-04-14T18:47:57.986Z,100955.91
2019-04-14T18:53:11.816Z,100946.26
2019-04-14T18:58:34.655Z,100960.12
2019-04-14T19:03:38.759Z,100960.58
2019-04-14T19:08:43.030Z,100963.95
2019-04-14T19:13:47.659Z,100973.03
2019-04-14T19:18:55.317Z,100955.88
2019-04-14T19:23:59.450Z,100980.38
2019-04-14T19:29:06.476Z,100980.38
2019-04-14T19:34:10.677Z,100989.89
2019-04-14T19:39:14.895Z,100991.42
2019-04-14T19:44:18.997Z,100997.30
2019-04-14T19:49:23.038Z,100995.36
2019-04-14T19:54:27.234Z,100999.64
2019-04-14T19:59:31.333Z,100988.80
2019-04-14T20:04:35.437Z,101007.50
2019-04-14T20:09:39.477Z,101009.77
2019-04-14T20:14:43.487Z,101009.77
2019-04-14T20:19:59.324Z,101017.84
2019-04-14T20:25:33.897Z,101019.30
2019-04-14T20:30:48.729Z,101019.30
2019-04-14T20:35:52.808Z,101027.16
2019-04-14T20:40:56.851Z,101033.34
2019-04-14T20:46:00.911Z,101033.34
2019-04-14T20:51:05.076Z,101035.51
2019-04-14T20:56:09.224Z,101028.05
2019-04-14T21:01:13.994Z,101026.89
2019-04-14T21:06:32.705Z,101043.88
2019-04-14T21:11:50.304Z,101042.31
2019-04-14T21:16:59.373Z,101042.31
2019-04-14T21:22:18.526Z,101058.51
2019-04-14T21:27:31.510Z,101046.84
2019-04-14T21:32:57.543Z,101046.84
2019-04-14T21:38:07.068Z,101063.30
2019-04-14T21:43:11.301Z,101063.30
2019-04-14T21:48:15.554Z,101068.80
2019-04-14T21:53:19.701Z,101070.83
2019-04-14T21:58:45.513Z,101070.83
2019-04-14T22:04:04.350Z,101083.72
2019-04-14T22:09:15.349Z,101070.38
2019-04-14T22:14:19.652Z,101086.41
2019-04-14T22:19:23.906Z,101100.75
2019-04-14T22:24:28.060Z,101095.84
2019-04-14T22:29:32.400Z,101095.27
2019-04-14T22:34:36.781Z,101098.92
2019-04-14T22:39:41.027Z,101102.58
2019-04-14T22:45:52.460Z,101113.64
2019-04-14T22:50:56.509Z,101120.58
2019-04-14T22:56:00.774Z,101120.58
2019-04-14T23:01:12.715Z,101109.77
2019-04-14T23:06:36.472Z,101103.80
2019-04-14T23:11:47.955Z,101103.80
2019-04-14T23:17:09.893Z,101116.53
2019-04-14T23:22:21.403Z,101104.30
2019-04-14T23:27:25.475Z,101104.30
2019-04-14T23:32:29.606Z,101113.66
2019-04-14T23:37:33.794Z,101107.49
2019-04-14T23:42:37.909Z,101120.26
2019-04-14T23:47:42.292Z,101121.86
2019-04-14T23:52:46.458Z,101123.64
2019-04-14T23:57:50.646Z,101116.64
